Main page
METAR-TAF:

METAR-TAF

Airports :

Nador International Airport

Nador, Morocco

latitude: 34-59-20N, longitude: 003-01-42W, elevation: 175 m

Current weather observation

The report was made 14 minutes ago, at 10:00 UTC
Wind 9 kt from the Northwest
Temperature 25°C
Humidity 50%
Pressure 1010 hPa
Visibility 10 km or more
no clouds below 1500 m and no cumulonimbus

METAR: GMMW 091000Z 31009KT CAVOK 25/14 Q1010 NOSIG

Time: 10:14 (10:14 UTC)

Forecast

The report was made 5 hours and 14 minutes ago, at 05:00 UTC
Forecast valid from 09 at 06 UTC to 10 at 12 UTC
Wind 12 kt from the East/Southeast
Visibility: 8000 m

TAF: GMMW 090500Z 0906/1012 11012KT 8000 NSC

Weather observations and forecasts of more than 4000 airports (METAR and TAF reports).

The available stations are represented by yellow and red dots on the map.

Hover mouse over dot to see the name of the station.

Then click to see weather observations and forecasts.

To change the map : click on the green buttons with a black cross to zoom in, on the green button with a dash to zoom out, or on the green arrows for adjacent maps.


METAR-TAF: